Latest Weather Observations for Strathalbyn

IDS60901

Issued at 8:01 pm CST Sunday 2 August 2015 (issued every 10 minutes, with the page automatically refreshed every 10 minutes)

About weather observations | Map of Adelaide area stations | Latest observations for Adelaide area | Other Formats
Station Details ID: 024580 Name: STRATHALBYN RACECOURSE Lat: -35.28 Lon: 138.89 Height: 58.0 m
Data from the previous 72 hours. | See also: Recent months at Strathalbyn
Date/Time
CST
Tmp

°C
App
Tmp
°C
Dew
Point
°C
Rel
Hum
%
Delta-T

°C
Wind Press
QNH
hPa
Press
MSL
hPa
Rain
since
9 am
mm
Dir
 
Spd
km/h
Gust
km/h
Spd
kts
Gust
kts
02/08:00pm 10.7 5.3 4.4 65 2.8 W 22 32 12 17 1020.6 - 0.0
02/07:30pm 11.3 5.4 6.0 70 2.5 WSW 26 37 14 20 1020.2 - 0.0
02/07:00pm 11.6 6.1 7.5 76 2.0 W 26 37 14 20 1019.7 - 0.0
02/06:30pm 11.7 5.8 7.4 75 2.1 W 28 41 15 22 1019.5 - 0.0
02/06:00pm 11.7 5.7 7.0 73 2.2 W 28 41 15 22 1019.3 1019.4 0.0
02/05:30pm 11.6 6.4 7.3 75 2.1 W 24 37 13 20 1018.9 - 0.0
02/05:10pm 11.9 5.5 7.0 72 2.4 W 30 48 16 26 1018.7 - 0.0
02/05:00pm 11.7 7.3 7.2 74 2.2 W 20 35 11 19 1018.8 - 0.0
02/04:30pm 12.1 6.1 7.2 72 2.4 W 28 41 15 22 1018.6 - 0.0
02/04:00pm 12.7 6.9 7.8 72 2.4 W 28 44 15 24 1018.4 - 0.0
02/03:40pm 12.6 6.2 6.9 68 2.7 W 30 48 16 26 1018.3 - 0.0
02/03:30pm 13.1 6.1 6.9 66 3.0 W 33 48 18 26 1018.3 - 0.0
02/03:10pm 13.2 6.4 7.6 69 2.7 W 33 52 18 28 1018.1 - 0.0
02/03:00pm 13.0 6.3 7.5 69 2.7 W 32 48 17 26 1017.9 1018.0 0.0
02/02:46pm 13.2 6.3 7.2 67 2.9 W 33 52 18 28 1017.9 - 0.0
02/02:30pm 13.4 6.9 8.0 70 2.7 W 32 48 17 26 1018.0 - 0.0
02/02:25pm 13.3 7.4 7.5 68 2.8 W 28 48 15 26 1018.0 - 0.0
02/02:00pm 13.5 6.9 7.9 69 2.8 W 32 46 17 25 1018.1 - 0.0
02/01:30pm 13.3 6.9 7.1 66 3.0 W 30 48 16 26 1018.0 - 0.0
02/01:25pm 12.8 6.2 5.9 63 3.3 W 30 48 16 26 1018.0 - 0.0
02/01:00pm 12.2 6.3 7.5 73 2.3 W 28 41 15 22 1018.1 - 0.0
02/12:30pm 13.2 6.5 7.4 68 2.8 W 32 50 17 27 1018.4 - 0.0
02/12:24pm 12.7 6.2 6.7 67 2.9 W 30 50 16 27 1018.5 - 0.0
02/12:00pm 12.2 6.6 7.3 72 2.4 W 26 37 14 20 1018.8 1018.9 0.0
02/11:30am 11.9 6.3 7.2 73 2.3 W 26 43 14 23 1018.9 - 0.0
02/11:22am 11.9 5.9 7.2 73 2.3 W 28 46 15 25 1019.0 - 0.0
02/11:00am 11.6 7.3 7.7 77 1.9 W 20 28 11 15 1019.0 - 0.0
02/10:30am 10.4 5.6 7.3 81 1.5 W 22 33 12 18 1019.1 - 0.0
02/10:00am 10.2 6.3 7.1 81 1.5 W 17 24 9 13 1019.2 - 0.0
02/09:30am 10.9 6.7 5.7 70 2.4 W 17 26 9 14 1018.7 - 0.0
02/09:00am 10.0 5.4 5.6 74 2.0 W 19 28 10 15 1018.9 1019.0 3.2
02/08:30am 9.6 6.0 5.0 73 2.1 W 13 20 7 11 1018.7 - 3.2
02/08:00am 8.1 4.4 4.3 77 1.7 WNW 13 19 7 10 1018.5 - 3.2
02/07:30am 7.1 3.3 3.9 80 1.4 WNW 13 15 7 8 1018.4 - 3.2
02/07:00am 6.5 2.6 3.3 80 1.3 WNW 13 15 7 8 1018.2 - 3.2
02/06:30am 6.1 1.8 3.4 83 1.1 NW 15 19 8 10 1017.9 - 3.2
02/06:00am 6.7 2.7 3.1 78 1.5 WNW 13 15 7 8 1017.6 1017.7 3.2
02/05:30am 6.9 2.6 3.2 77 1.6 WNW 15 19 8 10 1017.5 - 3.2
02/05:00am 7.6 3.0 3.6 76 1.7 W 17 20 9 11 1017.4 - 3.2
02/04:30am 8.6 3.7 4.0 73 2.0 W 19 22 10 12 1017.4 - 3.2
02/04:00am 7.8 3.2 3.8 76 1.7 WNW 17 20 9 11 1017.4 - 3.2
02/03:30am 8.0 3.5 4.2 77 1.7 W 17 20 9 11 1017.3 - 3.2
02/03:00am 7.9 4.3 5.0 82 1.3 W 13 17 7 9 1017.6 1017.7 3.2
02/02:30am 7.2 3.2 5.0 86 1.0 NW 15 17 8 9 1017.8 - 3.2
02/02:00am 7.9 4.0 5.5 85 1.1 NW 15 19 8 10 1017.8 - 3.2
02/01:30am 8.3 4.1 5.6 83 1.2 WNW 17 20 9 11 1017.9 - 3.2
02/01:00am 7.8 4.3 5.3 84 1.1 W 13 17 7 9 1017.8 - 3.2
02/12:30am 8.0 4.5 5.3 83 1.2 SW 13 19 7 10 1018.4 - 3.2
02/12:00am 8.0 4.8 5.3 83 1.2 SW 11 15 6 8 1018.2 1018.3 3.2
 
Date/Time
CST
Tmp

°C
App
Tmp
°C
Dew
Point
°C
Rel
Hum
%
Delta-T

°C
Wind Press
QNH
hPa
Press
MSL
hPa
Rain
since
9 am
mm
Dir
 
Spd
km/h
Gust
km/h
Spd
kts
Gust
kts
01/11:30pm 7.8 5.7 5.9 88 0.9 SW 6 7 3 4 1018.2 - 3.2
01/11:00pm 7.9 5.7 6.0 88 0.9 SW 7 7 4 4 1018.4 - 3.2
01/10:30pm 7.8 5.6 6.3 90 0.7 SW 7 9 4 5 1018.2 - 3.2
01/10:00pm 7.9 5.4 6.5 91 0.6 SW 9 13 5 7 1018.5 - 3.0
01/09:30pm 8.0 6.5 6.6 91 0.6 SW 4 6 2 3 1017.9 - 2.8
01/09:00pm 7.9 5.7 6.4 90 0.7 SW 7 9 4 5 1017.8 1017.9 2.4
01/08:30pm 8.1 6.0 6.6 90 0.7 SW 7 9 4 5 1017.6 - 1.8
01/08:00pm 8.3 7.1 6.4 88 0.9 SSW 2 6 1 3 1017.7 - 1.2
01/07:30pm 8.4 6.4 6.4 87 0.9 SSW 6 13 3 7 1017.5 - 0.8
01/07:00pm 8.7 5.8 6.5 86 1.0 SW 11 20 6 11 1017.6 - 0.2
01/06:30pm 8.9 6.0 6.7 86 1.0 SSW 11 15 6 8 1016.3 - 0.2
01/06:00pm 9.0 6.6 6.8 86 1.0 SSW 9 13 5 7 1016.8 1016.9 0.2
01/05:30pm 9.3 7.4 6.7 84 1.2 SSW 6 7 3 4 1016.7 - 0.2
01/05:00pm 9.4 8.6 6.3 81 1.4 CALM 0 4 0 2 1016.5 - 0.2
01/04:30pm 9.7 7.9 7.0 83 1.3 SSW 6 11 3 6 1016.3 - 0.2
01/04:00pm 9.8 7.7 6.0 77 1.8 SSW 6 7 3 4 1016.1 - 0.2
01/03:30pm 9.8 7.3 6.5 80 1.5 SSW 9 11 5 6 1015.9 - 0.2
01/03:00pm 10.5 8.7 7.0 79 1.7 SSW 6 11 3 6 1016.9 1017.0 0.0
01/02:30pm 10.5 7.6 6.3 75 2.0 SSW 11 13 6 7 1015.3 - 0.0
01/02:00pm 10.6 8.5 6.7 77 1.8 SW 7 9 4 5 1016.1 - 0.0
01/01:30pm 10.5 8.3 6.3 75 2.0 SW 7 11 4 6 1017.2 - 0.0
01/01:00pm 10.6 7.4 6.7 77 1.8 S 13 19 7 10 1017.1 - 0.0
01/12:30pm 10.1 6.5 6.8 80 1.6 SSW 15 24 8 13 1016.8 - 0.0
01/12:00pm 10.8 7.5 6.6 75 2.0 SW 13 19 7 10 1018.3 1018.4 0.0
01/11:30am 11.1 9.4 7.4 78 1.8 SSW 6 9 3 5 1017.2 - 0.0
01/11:00am 11.1 9.9 8.1 82 1.5 SW 4 9 2 5 1016.9 - 0.0
01/10:30am 10.8 10.3 7.9 82 1.4 CALM 0 0 0 0 1016.8 - 0.0
01/10:00am 10.5 8.9 8.1 85 1.2 SW 6 11 3 6 1017.0 - 0.0
01/09:30am 10.3 8.2 8.1 86 1.1 SSW 9 15 5 8 1017.2 - 0.0
01/09:00am 10.3 7.8 8.2 87 1.0 SSW 11 15 6 8 1016.2 1016.3 4.4
01/08:30am 10.2 7.4 8.5 89 0.8 S 13 17 7 9 1016.3 - 4.4
01/08:00am 10.1 7.0 8.7 91 0.7 SSW 15 28 8 15 1016.2 - 4.4
01/07:30am 10.2 8.8 9.0 92 0.6 S 6 7 3 4 1015.7 - 3.8
01/07:00am 10.1 8.5 8.9 92 0.6 S 7 11 4 6 1014.7 - 3.2
01/06:30am 10.2 6.2 9.0 92 0.6 S 20 24 11 13 1014.5 - 2.8
01/06:00am 10.4 7.0 9.0 91 0.7 SW 17 26 9 14 1013.9 1013.9 2.2
01/05:30am 10.6 7.6 9.2 91 0.7 SW 15 20 8 11 1013.6 - 2.0
01/05:00am 10.8 7.0 9.1 89 0.8 SW 19 28 10 15 1013.0 - 1.4
01/04:30am 11.0 5.9 9.3 89 0.9 SSW 26 35 14 19 1012.2 - 1.0
01/04:00am 14.0 9.8 11.2 83 1.5 W 24 39 13 21 1011.6 - 0.8
01/03:45am 14.0 8.7 11.3 84 1.4 WNW 30 48 16 26 1011.1 - 0.8
01/03:30am 14.2 9.3 11.4 83 1.5 WNW 28 43 15 23 1010.7 - 0.6
01/03:00am 14.4 9.5 11.4 82 1.6 WNW 28 39 15 21 1010.8 1010.8 0.2
01/02:34am 14.5 9.6 11.3 81 1.7 WNW 28 50 15 27 1010.6 - 0.0
01/02:30am 14.4 9.1 11.2 81 1.7 WNW 30 44 16 24 1010.7 - 0.0
01/02:00am 14.9 10.0 11.3 79 1.9 WNW 28 41 15 22 1010.6 - 0.0
01/01:35am 14.8 9.9 11.4 80 1.8 WNW 28 54 15 29 1011.0 - 0.0
01/01:30am 14.6 10.0 11.2 80 1.8 WNW 26 39 14 21 1010.9 - 0.0
01/01:00am 13.9 10.3 10.5 80 1.8 NNW 20 30 11 16 1011.4 - 0.0
01/12:30am 13.8 11.3 9.8 77 2.1 N 13 26 7 14 1011.7 - 0.0
01/12:00am 13.9 8.5 9.5 75 2.3 NW 28 46 15 25 1012.0 1012.0 0.0
 
Date/Time
CST
Tmp

°C
App
Tmp
°C
Dew
Point
°C
Rel
Hum
%
Delta-T

°C
Wind Press
QNH
hPa
Press
MSL
hPa
Rain
since
9 am
mm
Dir
 
Spd
km/h
Gust
km/h
Spd
kts
Gust
kts
31/11:53pm 14.1 8.8 9.7 75 2.3 NW 28 46 15 25 1012.0 - 0.0
31/11:30pm 13.9 8.4 9.3 74 2.4 NW 28 43 15 23 1011.7 - 0.0
31/11:00pm 13.9 8.5 8.1 68 2.9 NNW 26 35 14 19 1012.0 - 0.0
31/10:58pm 14.3 8.6 8.3 67 3.0 NNW 28 35 15 19 1012.0 - 0.0
31/10:30pm 9.7 7.3 7.1 84 1.2 N 9 15 5 8 1012.5 - 0.0
31/10:00pm 11.0 8.7 7.3 78 1.8 NNE 9 11 5 6 1012.9 - 0.0
31/09:30pm 12.1 9.5 7.8 75 2.1 NNE 11 13 6 7 1013.0 - 0.0
31/09:00pm 11.7 9.5 7.8 77 1.9 N 9 11 5 6 1013.5 1013.5 0.0
31/08:30pm 12.6 9.6 7.9 73 2.3 N 13 15 7 8 1013.6 - 0.0
31/08:00pm 11.4 8.8 7.7 78 1.8 NNW 11 13 6 7 1013.8 - 0.0
31/07:30pm 11.7 9.1 7.8 77 1.9 NNW 11 13 6 7 1013.9 - 0.0
31/07:00pm 12.4 9.0 7.7 73 2.3 NNW 15 17 8 9 1014.0 - 0.0
31/06:30pm 12.8 9.4 7.7 71 2.5 NW 15 20 8 11 1014.3 - 0.0
31/06:00pm 12.9 9.1 7.6 70 2.6 NW 17 20 9 11 1014.1 1014.1 0.0
31/05:30pm 13.6 9.4 7.4 66 3.0 NNW 19 26 10 14 1013.7 - 0.0
31/05:00pm 13.9 9.5 7.4 65 3.2 NW 20 30 11 16 1014.1 - 0.0
31/04:30pm 14.2 9.8 7.5 64 3.3 NW 20 33 11 18 1014.6 - 0.0
31/04:00pm 15.2 11.4 7.7 61 3.7 WNW 17 30 9 16 1014.8 - 0.0
31/03:30pm 14.8 10.4 6.6 58 4.0 NW 19 26 10 14 1015.1 - 0.0
31/03:00pm 15.1 9.8 6.7 57 4.1 NNW 24 35 13 19 1015.2 1015.3 0.0
31/02:30pm 14.3 10.0 6.9 61 3.6 NNW 19 28 10 15 1015.5 - 0.0
31/02:00pm 13.9 9.3 5.8 58 3.8 NNW 19 28 10 15 1016.0 - 0.0
31/01:30pm 13.5 7.8 4.9 56 4.0 NNW 24 35 13 19 1016.7 - 0.0
31/01:00pm 13.7 8.9 5.8 59 3.7 NNW 20 28 11 15 1017.3 - 0.0
31/12:30pm 12.8 8.4 4.5 57 3.8 NNW 17 26 9 14 1018.1 - 0.0
31/12:00pm 12.8 7.8 4.8 58 3.7 NNW 20 32 11 17 1018.9 1019.0 0.0
31/11:30am 12.3 8.2 4.5 59 3.6 NNW 15 20 8 11 1019.6 - 0.0
31/11:00am 11.3 8.0 6.6 73 2.2 NE 13 17 7 9 1020.0 - 0.0
31/10:30am 10.9 7.5 5.7 70 2.4 NNE 13 19 7 10 1020.5 - 0.0
31/10:00am 9.6 7.4 6.0 78 1.7 NNW 7 9 4 5 1020.8 - 0.0
31/09:30am 9.0 7.1 4.8 75 1.9 NNW 4 7 2 4 1021.4 - 0.0
31/09:00am 7.8 4.9 4.4 79 1.5 NNW 9 11 5 6 1021.7 1021.7 1.8
31/08:30am 5.9 2.7 2.9 81 1.2 NNW 9 13 5 7 1021.7 - 1.8
31/08:00am 4.0 0.2 1.5 84 1.0 NNW 11 13 6 7 1022.0 - 1.8
31/07:30am 3.0 -1.8 0.4 83 1.0 NW 15 19 8 10 1021.8 - 1.8
31/07:00am 2.9 -1.8 0.6 85 0.9 N 15 19 8 10 1021.6 - 1.8
31/06:30am 2.8 -2.4 0.2 83 1.0 NNW 17 17 9 9 1021.4 - 1.8
31/06:00am 3.6 -1.5 0.7 81 1.1 NW 17 19 9 10 1021.2 1021.2 1.8
31/05:30am 3.1 -2.0 0.7 84 0.9 NNW 17 19 9 10 1021.1 - 1.8
31/05:00am 3.1 -1.6 0.8 85 0.9 NNW 15 17 8 9 1021.0 - 1.6
31/04:30am 3.5 -1.2 1.2 85 0.9 NNW 15 17 8 9 1021.0 - 1.6
31/04:00am 3.5 -0.4 1.2 85 0.9 NNW 11 13 6 7 1021.2 - 1.6
31/03:30am 4.4 0.6 1.9 84 1.0 NNW 11 15 6 8 1021.4 - 1.6
31/03:00am 4.4 0.7 2.3 86 0.8 NNW 11 13 6 7 1021.8 1021.8 1.6
31/02:30am 4.4 0.3 2.1 85 0.9 NW 13 15 7 8 1021.7 - 1.6
31/02:00am 4.6 0.5 2.3 85 0.9 WNW 13 15 7 8 1021.9 - 1.6
31/01:30am 4.5 1.2 2.2 85 0.9 WNW 9 9 5 5 1022.0 - 1.6
31/01:00am 5.0 1.7 2.2 82 1.1 W 9 11 5 6 1022.1 - 1.6
31/12:30am 6.8 3.3 3.4 79 1.4 W 11 13 6 7 1022.3 - 1.6
31/12:00am 6.9 3.4 3.3 78 1.5 WSW 11 13 6 7 1022.3 1022.3 1.6
 
Date/Time
CST
Tmp

°C
App
Tmp
°C
Dew
Point
°C
Rel
Hum
%
Delta-T

°C
Wind Press
QNH
hPa
Press
MSL
hPa
Rain
since
9 am
mm
Dir
 
Spd
km/h
Gust
km/h
Spd
kts
Gust
kts
30/11:30pm 7.0 3.5 3.3 77 1.6 W 11 13 6 7 1022.2 - 1.6
30/11:00pm 7.8 4.0 3.7 75 1.8 W 13 13 7 7 1022.3 - 1.6
30/10:30pm 7.8 4.1 4.2 78 1.6 W 13 15 7 8 1022.3 - 1.6
30/10:00pm 8.4 5.2 5.2 80 1.4 WSW 11 13 6 7 1022.0 - 1.6
30/09:30pm 9.3 6.3 6.2 81 1.4 WSW 11 15 6 8 1022.1 - 1.6
30/09:00pm 9.7 7.3 6.8 82 1.4 SW 9 11 5 6 1021.6 1021.6 1.6
30/08:30pm 10.8 8.6 8.0 83 1.4 SW 9 13 5 7 1021.2 - 1.6

Latest Capital City Observations: Canberra | Sydney | Melbourne | Brisbane | Adelaide | Perth | Hobart | Darwin

Other Formats:

Comma delimited format used in spreadsheet applications
http://www.bom.gov.au/fwo/IDS60901/IDS60901.94814.axf

JavaScript Object Notation format (JSON) in row-major order
http://www.bom.gov.au/fwo/IDS60901/IDS60901.94814.json